Aérodrome :
LOGIN :

S'inscrire | Disclaimer

   EN    FR    IT 

 










Légende :    VFR   VFR Marginal   IFR   IFR Intensif   IFR Très Intensif
Visi : 
Plafond : 
>= 8 km
>= 3000ft
5 à 8 km
1000 à 3000 ft
1500m à 5 km
500 à 1000 ft
800 à 1500m
200 à 500 ft
< 800m
< 200 ft
Symboles :   Orages  Brouillard  Fortes neiges  Fortes précipitations  Vent > 20 kt
SIGMETs :   Divers  Orages  Givrage  Turbulence  Onde Orograph.  Cendres Volcan.







- Altitude de l'aérodrome : 600 ft
- Code IATA : VIE


LOWW - Vienna Schwechat

DERNIER METAR :
  • 140750Z 17006KT 130V200 9999 FEW040 SCT044 BKN060 02/M00 Q1001 TEMPO 25007KT

METARs EXPIRÉS :
  • 140720Z 13006KT 9999 FEW040 SCT070 BKN110 02/M01 Q1001 TEMPO 25007KT
  • 140650Z 20007KT 170V260 9999 -RA FEW040 BKN050 02/M00 Q1002 NOSIG
  • 140620Z 15006KT 9999 SCT050 BKN060 01/M00 Q1000 NOSIG
  • 140550Z 14006KT 100V170 9999 FEW040 BKN060 01/M00 Q1000 NOSIG
  • 140520Z 15008KT CAVOK 01/M00 Q1001 NOSIG

TAF TAF LOWW
Valide du 14 à 06h jusqu'au 15 à 12h UTC


140515Z 1406/1512 16007KT CAVOK TX07/1412Z TN02/1406Z
BECMG 1408/1410 29020G33KT
PROB40
TEMPO 1410/1413 29027G45KT 9999 -SHRA SCT045 BKN080
BECMG 1413/1415 20010KT
BECMG 1416/1418 14006KT
PROB30 1501/1507 VRB02KT -RA BKN014
BECMG 1507/1509 29013KT
Pas de NOTAMs connus pour ce terrain.
2 SIGMETs publiés pour la FIR Wien (LOVV) :
 
Turbulence forte
LOVV SIGMET 3 VALID 140752/140900 LOWW
LOVV WIEN FIR SEV TURB FCST WI N4915 E01515 - N4750 E01545 - N4725 E01300 - N4825 E01235 - N4915 E01515 SFC/FL100 MOV E WKN=
Turbulence forte
LOVV SIGMET 2 VALID 140637/140800 LOWW
LOVV WIEN FIR SEV TURB FCST WI N4715 E00930 - N4735 E00930 - N4805 E01305 - N4715 E01310 - N4715 E00930 SFC/FL150 STNR NC=



MET'MAP, la Météo Aéronautique d'un coup d'oeil ! - Copyright ORBIFLY Décembre 2007 - Disclaimer

ORBIFLY MET'MAP TEAM :

Programmation & Développement : Alexandra Zaïnal
Conception & Développement : Baudouin d'Aumeries
Co-Programmation & Développement : Marc-Olivier Méhu
Soutien technique & logistique : Manuel Goepfert

Contact : metmap@orbifly.com




SOURCES & CREDITS :

   NOAA